Time;durP1;ratioP1;P1;durP2;ratioP2;P2;SDS_P1;SDS_P2;PMS_P1;PMS_P2;Temp;Humidity;BMP_temperature;BMP_pressure;BME280_temperature;BME280_humidity;BME280_pressure;Samples;Min_cycle;Max_cycle;Signal;HPM_P1;HPM_P2
2021/06/13 00:00:30;;;;;;;5.18;2.22;;;14.70;74.30;;;;;;5055236;28;20024;-66
2021/06/13 00:02:56;;;;;;;5.63;1.98;;;14.60;74.40;;;;;;5055079;28;20108;-66
2021/06/13 00:05:22;;;;;;;5.07;1.90;;;14.70;74.60;;;;;;5055164;28;20028;-66
2021/06/13 00:07:48;;;;;;;4.70;2.10;;;14.60;74.60;;;;;;5053722;28;20036;-66
2021/06/13 00:10:15;;;;;;;4.53;2.17;;;14.60;74.70;;;;;;5053712;28;20095;-66
2021/06/13 00:12:41;;;;;;;5.07;2.20;;;14.60;74.60;;;;;;5055013;28;20053;-66
2021/06/13 00:15:12;;;;;;;6.00;2.30;;;14.60;74.60;;;;;;5055019;28;20616;-66
2021/06/13 00:17:37;;;;;;;5.10;2.13;;;14.60;74.70;;;;;;5053395;28;20073;-66
2021/06/13 00:20:12;;;;;;;4.15;2.08;;;14.60;74.80;;;;;;5054858;28;20137;-66
2021/06/13 00:22:38;;;;;;;7.43;2.28;;;14.60;74.90;;;;;;5054835;28;20071;-66
2021/06/13 00:25:05;;;;;;;6.45;2.13;;;14.50;75.00;;;;;;5054595;28;20025;-66
2021/06/13 00:27:31;;;;;;;5.28;2.38;;;14.40;75.10;;;;;;5054580;28;20115;-66
2021/06/13 00:29:56;;;;;;;4.53;2.33;;;14.40;75.30;;;;;;5054486;28;20068;-66
2021/06/13 00:32:22;;;;;;;6.80;2.55;;;14.30;75.40;;;;;;5054632;28;20104;-66
2021/06/13 00:34:47;;;;;;;3.95;1.83;;;14.30;75.70;;;;;;5054589;28;20425;-66
2021/06/13 00:37:13;;;;;;;5.00;1.80;;;14.20;75.90;;;;;;5054380;28;20029;-66
2021/06/13 00:39:39;;;;;;;4.63;2.00;;;14.20;76.30;;;;;;5054303;28;20104;-66
2021/06/13 00:42:04;;;;;;;5.22;2.17;;;14.10;76.40;;;;;;5053190;28;20358;-66
2021/06/13 00:44:30;;;;;;;6.43;2.30;;;14.10;76.60;;;;;;5054238;28;20481;-66
2021/06/13 00:46:55;;;;;;;6.88;2.80;;;14.00;76.70;;;;;;5053039;28;20021;-66
2021/06/13 00:49:21;;;;;;;7.10;2.83;;;14.00;77.00;;;;;;5054229;28;20025;-66
2021/06/13 00:51:47;;;;;;;4.35;1.88;;;13.90;77.20;;;;;;5054505;28;20037;-66
2021/06/13 00:54:13;;;;;;;4.70;2.35;;;13.80;77.40;;;;;;5052937;28;20362;-66
2021/06/13 00:56:38;;;;;;;3.63;2.17;;;13.80;77.60;;;;;;5052627;28;20028;-66
2021/06/13 00:59:05;;;;;;;5.97;2.80;;;13.70;77.80;;;;;;5053900;28;20036;-66
2021/06/13 01:01:31;;;;;;;4.45;2.35;;;13.60;78.10;;;;;;5053224;28;20032;-66
2021/06/13 01:03:56;;;;;;;5.28;2.45;;;13.60;78.40;;;;;;5054071;28;20024;-66
2021/06/13 01:06:37;;;;;;;6.22;2.60;;;13.50;78.60;;;;;;5053925;28;20036;-66
2021/06/13 01:09:06;;;;;;;4.78;2.40;;;13.50;78.80;;;;;;5052627;28;20036;-66
2021/06/13 01:11:55;;;;;;;5.13;2.03;;;13.50;79.10;;;;;;5053594;28;20389;-66
2021/06/13 01:14:36;;;;;;;6.57;1.97;;;13.40;79.30;;;;;;5053885;28;20440;-66
2021/06/13 01:17:25;;;;;;;4.28;2.50;;;13.40;79.60;;;;;;5053475;28;20045;-66
2021/06/13 01:20:09;;;;;;;5.18;3.10;;;13.40;79.60;;;;;;5052337;28;20384;-66
2021/06/13 01:22:53;;;;;;;4.43;2.53;;;13.30;79.80;;;;;;5052426;28;20381;-66
2021/06/13 01:25:35;;;;;;;4.50;2.47;;;13.30;80.00;;;;;;5052345;28;20388;-66
2021/06/13 01:28:38;;;;;;;4.70;2.30;;;13.30;80.10;;;;;;5053516;28;20449;-66
2021/06/13 01:31:06;;;;;;;4.72;1.80;;;13.30;80.20;;;;;;5052303;28;20025;-66
2021/06/13 01:33:33;;;;;;;3.53;1.95;;;13.20;80.40;;;;;;5053467;28;20029;-66
2021/06/13 01:36:00;;;;;;;5.88;2.80;;;13.20;80.60;;;;;;5053293;28;20025;-67
2021/06/13 01:38:28;;;;;;;6.55;2.58;;;13.00;81.20;;;;;;5053270;28;20035;-66
2021/06/13 01:40:54;;;;;;;4.18;2.28;;;12.80;82.00;;;;;;5053048;28;20075;-66
2021/06/13 01:43:23;;;;;;;3.60;1.90;;;12.80;82.40;;;;;;5053307;28;20045;-66
2021/06/13 01:45:53;;;;;;;3.97;2.08;;;12.70;82.80;;;;;;5053256;28;20082;-66
2021/06/13 01:48:18;;;;;;;;;;;12.70;83.00;;;;;;5053600;28;20075;-66
2021/06/13 01:50:44;;;;;;;4.65;2.35;;;12.60;82.90;;;;;;5053188;28;20392;-66
2021/06/13 01:53:13;;;;;;;4.70;2.08;;;12.50;83.50;;;;;;5053054;28;20111;-66
2021/06/13 01:55:40;;;;;;;3.58;2.03;;;12.50;83.70;;;;;;5053183;28;20028;-66
2021/06/13 01:58:08;;;;;;;3.47;2.17;;;12.60;83.90;;;;;;5052858;28;20064;-66
2021/06/13 02:00:36;;;;;;;3.58;1.70;;;12.60;84.00;;;;;;5052963;28;20511;-66
2021/06/13 02:03:03;;;;;;;2.47;1.40;;;12.60;84.00;;;;;;5051900;28;20025;-66
2021/06/13 02:05:30;;;;;;;4.70;1.83;;;12.60;84.10;;;;;;5051634;28;20116;-66
2021/06/13 02:07:57;;;;;;;4.95;1.90;;;12.60;84.10;;;;;;5052820;28;20508;-66
2021/06/13 02:10:24;;;;;;;4.90;2.25;;;12.60;84.20;;;;;;5052903;28;20025;-66
2021/06/13 02:12:51;;;;;;;4.82;2.22;;;12.60;84.40;;;;;;5051386;28;20024;-66
2021/06/13 02:15:20;;;;;;;5.38;2.50;;;12.50;84.60;;;;;;5052713;28;20151;-66
2021/06/13 02:17:49;;;;;;;6.05;2.70;;;12.50;84.80;;;;;;5051449;28;20032;-66
2021/06/13 02:20:19;;;;;;;5.67;2.07;;;12.50;85.00;;;;;;5052727;28;20111;-66
2021/06/13 02:22:47;;;;;;;10.27;2.88;;;12.40;85.30;;;;;;5052881;28;20107;-66
2021/06/13 02:25:13;;;;;;;5.40;2.70;;;12.40;85.60;;;;;;5053110;28;20021;-66
2021/06/13 02:27:39;;;;;;;6.38;2.70;;;12.30;85.80;;;;;;5052579;28;20036;-66
2021/06/13 02:30:06;;;;;;;5.32;2.08;;;12.30;85.90;;;;;;5052773;28;20476;-66
2021/06/13 02:32:35;;;;;;;2.58;1.73;;;12.20;86.30;;;;;;5051496;28;20029;-66
2021/06/13 02:35:05;;;;;;;3.67;1.55;;;12.20;86.60;;;;;;5052621;28;20074;-66
2021/06/13 02:37:31;;;;;;;2.92;1.63;;;12.10;86.80;;;;;;5052544;28;20123;-66
2021/06/13 02:39:58;;;;;;;3.72;1.92;;;12.10;87.00;;;;;;5052651;28;20053;-66
2021/06/13 02:42:23;;;;;;;4.03;2.53;;;12.10;87.20;;;;;;5052534;28;20025;-66
2021/06/13 02:44:50;;;;;;;4.97;2.42;;;12.10;87.20;;;;;;5052645;28;20025;-66
2021/06/13 02:47:15;;;;;;;5.53;3.17;;;12.10;87.40;;;;;;5052484;28;20029;-66
2021/06/13 02:49:42;;;;;;;6.93;3.80;;;12.00;87.50;;;;;;5052387;28;20554;-66
2021/06/13 02:52:16;;;;;;;5.57;2.95;;;11.90;88.20;;;;;;5052690;28;20028;-66
2021/06/13 02:54:45;;;;;;;4.57;2.75;;;11.80;88.60;;;;;;5052525;28;20103;-66
2021/06/13 02:57:23;;;;;;;3.90;2.70;;;11.70;89.00;;;;;;5051114;28;20453;-66
2021/06/13 02:59:54;;;;;;;4.97;2.60;;;11.80;89.10;;;;;;5052143;28;20025;-66
2021/06/13 03:02:27;;;;;;;5.40;2.78;;;11.70;89.20;;;;;;5052473;28;20022;-66
2021/06/13 03:04:54;;;;;;;4.68;3.10;;;11.70;89.40;;;;;;5052378;28;20074;-66
2021/06/13 03:07:20;;;;;;;6.32;3.03;;;11.70;89.60;;;;;;5052430;28;20436;-66
2021/06/13 03:09:48;;;;;;;6.32;3.35;;;11.70;89.80;;;;;;5052194;28;20358;-66
2021/06/13 03:12:15;;;;;;;7.35;3.33;;;11.80;89.80;;;;;;5052354;28;20017;-66
2021/06/13 03:14:42;;;;;;;4.35;2.97;;;11.70;89.90;;;;;;5052161;28;20032;-66
2021/06/13 03:17:09;;;;;;;3.85;2.45;;;11.60;90.00;;;;;;5052053;28;20041;-66
2021/06/13 03:19:38;;;;;;;4.28;2.65;;;11.50;90.30;;;;;;5052191;28;20025;-66
2021/06/13 03:22:05;;;;;;;6.83;2.80;;;11.50;90.40;;;;;;5052329;28;20020;-66
2021/06/13 03:24:31;;;;;;;4.43;2.40;;;11.50;90.50;;;;;;5054375;28;20025;-66
2021/06/13 03:26:58;;;;;;;5.18;3.00;;;11.50;90.60;;;;;;5055764;28;20024;-66
2021/06/13 03:29:26;;;;;;;6.40;3.58;;;11.50;90.60;;;;;;5054330;28;20112;-66
2021/06/13 03:31:53;;;;;;;5.55;3.50;;;11.50;90.60;;;;;;5055753;28;20067;-66
2021/06/13 03:34:19;;;;;;;7.00;3.72;;;11.50;90.70;;;;;;5055832;28;20067;-66
2021/06/13 03:36:45;;;;;;;5.88;3.42;;;11.50;90.60;;;;;;5055560;28;20458;-66
2021/06/13 03:39:12;;;;;;;7.82;3.38;;;11.60;90.70;;;;;;5055576;28;20025;-66
2021/06/13 03:41:38;;;;;;;4.75;3.13;;;11.60;90.70;;;;;;5055414;28;20416;-66
2021/06/13 03:44:04;;;;;;;7.45;3.33;;;11.60;90.80;;;;;;5055641;28;20021;-66
2021/06/13 03:46:30;;;;;;;6.10;3.60;;;11.60;90.80;;;;;;5054141;28;20028;-66
2021/06/13 03:48:57;;;;;;;5.88;3.50;;;11.50;90.90;;;;;;5054199;28;20024;-66
2021/06/13 03:51:24;;;;;;;6.35;3.60;;;11.50;91.00;;;;;;5055408;28;20477;-66
2021/06/13 03:53:56;;;;;;;6.50;3.58;;;11.50;91.10;;;;;;5055302;28;20421;-66
2021/06/13 03:56:43;;;;;;;6.07;3.22;;;11.60;91.10;;;;;;5055192;28;20033;-66
2021/06/13 03:59:10;;;;;;;5.90;3.45;;;11.50;91.20;;;;;;5055165;28;20017;-66
2021/06/13 04:01:38;;;;;;;6.40;3.22;;;11.50;91.30;;;;;;5053719;28;20025;-66
2021/06/13 04:04:04;;;;;;;5.18;2.75;;;11.60;91.30;;;;;;5055226;28;20021;-66
2021/06/13 04:06:31;;;;;;;6.25;2.92;;;11.60;91.30;;;;;;5054173;28;20392;-66
2021/06/13 04:08:57;;;;;;;8.35;3.33;;;11.60;91.40;;;;;;5055017;28;20029;-66
2021/06/13 04:11:24;;;;;;;6.30;3.38;;;11.60;91.50;;;;;;5055042;28;20021;-66
2021/06/13 04:13:50;;;;;;;6.95;3.30;;;11.60;91.50;;;;;;5054968;28;20487;-66
2021/06/13 04:16:19;;;;;;;4.35;3.50;;;11.60;91.60;;;;;;5053240;28;20041;-66
2021/06/13 04:18:45;;;;;;;7.10;4.25;;;11.60;91.70;;;;;;5054889;28;20033;-66
2021/06/13 04:21:13;;;;;;;5.57;3.22;;;11.60;91.70;;;;;;5054634;28;20412;-66
2021/06/13 04:23:44;;;;;;;7.13;3.88;;;11.60;91.80;;;;;;5054772;28;20017;-66
2021/06/13 04:26:14;;;;;;;4.30;2.78;;;11.60;92.00;;;;;;5054915;28;20082;-66
2021/06/13 04:28:40;;;;;;;3.20;2.50;;;11.40;92.30;;;;;;5053390;28;20451;-66
2021/06/13 04:31:11;;;;;;;5.38;3.10;;;11.40;92.60;;;;;;5054539;28;20025;-66
2021/06/13 04:33:36;;;;;;;7.10;3.58;;;11.40;92.70;;;;;;5054667;28;20115;-66
2021/06/13 04:36:02;;;;;;;7.57;3.53;;;11.40;92.80;;;;;;5053449;28;20044;-66
2021/06/13 04:38:28;;;;;;;4.57;3.35;;;11.40;93.00;;;;;;5054468;28;20033;-66
2021/06/13 04:40:54;;;;;;;5.50;4.20;;;11.50;93.10;;;;;;5054448;28;20027;-66
2021/06/13 04:43:20;;;;;;;7.47;4.32;;;11.50;93.20;;;;;;5053266;28;20025;-66
2021/06/13 04:45:46;;;;;;;7.57;4.03;;;11.60;93.20;;;;;;5054172;28;20024;-66
2021/06/13 04:48:12;;;;;;;9.82;4.88;;;11.70;93.60;;;;;;5054225;28;20083;-66
2021/06/13 04:50:40;;;;;;;6.63;4.18;;;11.60;93.30;;;;;;5054120;28;20393;-66
2021/06/13 04:56:27;;;;;;;6.45;3.90;;;11.60;94.00;;;;;;5054237;28;20557;-66
2021/06/13 04:58:52;;;;;;;6.10;3.85;;;11.60;94.00;;;;;;5052482;28;20032;-66
2021/06/13 05:01:18;;;;;;;6.97;3.70;;;11.60;94.40;;;;;;5053862;28;20078;-65
2021/06/13 05:03:44;;;;;;;6.40;4.10;;;11.70;94.10;;;;;;5054057;28;20069;-66
2021/06/13 05:06:10;;;;;;;7.95;5.13;;;11.80;94.10;;;;;;5053948;28;20060;-65
2021/06/13 05:08:39;;;;;;;12.52;5.72;;;11.80;94.20;;;;;;5053893;28;20032;-65
2021/06/13 05:11:04;;;;;;;9.32;5.45;;;11.90;94.40;;;;;;5053718;28;20029;-65
2021/06/13 05:13:30;;;;;;;11.15;5.53;;;11.90;94.60;;;;;;5053768;28;20043;-65
2021/06/13 05:15:55;;;;;;;7.82;4.80;;;11.90;94.70;;;;;;5053306;28;20497;-66
2021/06/13 05:18:21;;;;;;;9.25;5.00;;;12.00;94.80;;;;;;5053727;28;20021;-65
2021/06/13 05:20:52;;;;;;;8.93;5.13;;;12.00;94.80;;;;;;5052387;28;20370;-65
2021/06/13 05:23:18;;;;;;;9.82;4.97;;;12.10;94.80;;;;;;5053815;28;20106;-65
2021/06/13 05:25:44;;;;;;;8.15;4.80;;;12.20;94.90;;;;;;5053461;28;20033;-65
2021/06/13 05:28:09;;;;;;;6.97;4.75;;;12.20;95.00;;;;;;5053539;28;20017;-65
2021/06/13 05:30:36;;;;;;;7.80;4.80;;;12.30;95.10;;;;;;5053228;28;20025;-65
2021/06/13 05:33:01;;;;;;;7.20;4.95;;;12.30;95.10;;;;;;5053344;28;20044;-65
2021/06/13 05:35:27;;;;;;;8.00;4.72;;;12.40;95.20;;;;;;5053470;28;20385;-66
2021/06/13 05:37:53;;;;;;;7.72;4.25;;;12.50;95.20;;;;;;5053354;28;20029;-66
2021/06/13 05:40:20;;;;;;;9.05;4.50;;;12.50;95.30;;;;;;5053184;28;20040;-66
2021/06/13 05:42:48;;;;;;;11.15;5.13;;;12.50;95.30;;;;;;5053276;28;20029;-66
2021/06/13 05:45:14;;;;;;;6.63;4.47;;;12.60;95.40;;;;;;5052576;28;20083;-66
2021/06/13 05:47:40;;;;;;;7.88;4.85;;;12.60;95.40;;;;;;5051277;28;20446;-66
2021/06/13 05:50:08;;;;;;;7.55;4.47;;;12.70;95.40;;;;;;5051750;28;20476;-66
2021/06/13 05:52:35;;;;;;;9.48;5.45;;;12.80;95.50;;;;;;5031107;28;20047;-66
2021/06/13 05:55:01;;;;;;;7.82;4.32;;;12.80;95.60;;;;;;5032198;28;20456;-66
2021/06/13 05:57:34;;;;;;;6.55;4.47;;;12.90;95.70;;;;;;5032367;28;20060;-66
2021/06/13 06:00:15;;;;;;;8.40;4.28;;;12.90;95.70;;;;;;5032375;28;20072;-66
2021/06/13 06:02:42;;;;;;;7.80;4.03;;;13.00;95.70;;;;;;5046680;28;20034;-66
2021/06/13 06:05:09;;;;;;;8.93;4.80;;;13.00;95.70;;;;;;5071737;28;20024;-66
2021/06/13 06:07:35;;;;;;;10.88;5.50;;;13.10;95.80;;;;;;5069985;28;20036;-65
2021/06/13 06:10:01;;;;;;;9.10;5.20;;;13.20;95.90;;;;;;5072998;28;20033;-66
2021/06/13 06:12:27;;;;;;;12.07;5.25;;;13.30;96.00;;;;;;5072935;28;20024;-65
2021/06/13 06:14:52;;;;;;;10.90;5.75;;;13.30;96.10;;;;;;5073047;28;20032;-65
2021/06/13 06:17:18;;;;;;;11.65;5.82;;;13.40;96.10;;;;;;5059379;28;20053;-65
2021/06/13 06:19:44;;;;;;;8.38;4.43;;;13.40;96.10;;;;;;5052833;28;20044;-65
2021/06/13 06:22:10;;;;;;;7.40;4.28;;;13.50;96.20;;;;;;5052633;28;20477;-65
2021/06/13 06:24:36;;;;;;;10.20;4.45;;;13.50;96.10;;;;;;5051601;28;20541;-65
2021/06/13 06:27:02;;;;;;;9.00;4.32;;;13.60;96.10;;;;;;5052757;28;20486;-65
2021/06/13 06:29:28;;;;;;;6.95;3.97;;;13.70;96.10;;;;;;5051375;28;20033;-65
2021/06/13 06:31:54;;;;;;;8.38;4.72;;;13.80;96.10;;;;;;5052719;28;20104;-65
2021/06/13 06:34:20;;;;;;;15.30;5.97;;;13.90;96.00;;;;;;5051228;28;20552;-65
2021/06/13 06:36:46;;;;;;;11.95;5.45;;;13.90;96.10;;;;;;5052587;28;20112;-65
2021/06/13 06:39:12;;;;;;;13.60;6.28;;;13.90;96.10;;;;;;5052485;28;20025;-65
2021/06/13 06:41:38;;;;;;;10.75;5.03;;;14.00;96.10;;;;;;5052111;28;20037;-65
2021/06/13 06:44:05;;;;;;;9.85;4.40;;;14.10;96.10;;;;;;5052008;28;20035;-65
2021/06/13 06:46:31;;;;;;;6.78;3.55;;;14.10;96.00;;;;;;5052036;28;20493;-65
2021/06/13 06:48:57;;;;;;;7.63;4.13;;;14.20;95.90;;;;;;5051928;28;20025;-65
2021/06/13 06:51:22;;;;;;;11.27;4.20;;;14.30;95.80;;;;;;5050875;28;20028;-65
2021/06/13 06:53:48;;;;;;;6.75;3.92;;;14.40;95.70;;;;;;5050740;28;20039;-65
2021/06/13 06:56:14;;;;;;;7.95;3.67;;;14.50;95.60;;;;;;5052034;28;20029;-65
2021/06/13 06:58:39;;;;;;;6.18;3.15;;;14.50;95.40;;;;;;5053059;28;20378;-65
2021/06/13 07:01:04;;;;;;;7.07;3.70;;;14.60;95.20;;;;;;5055968;28;20025;-65
2021/06/13 07:03:30;;;;;;;6.97;2.80;;;14.70;95.10;;;;;;5055720;28;20029;-65
2021/06/13 07:05:56;;;;;;;6.65;2.30;;;14.70;94.80;;;;;;5055898;28;20154;-65
2021/06/13 07:08:21;;;;;;;10.52;3.58;;;14.80;94.50;;;;;;5054561;28;20020;-65
2021/06/13 07:10:47;;;;;;;5.65;2.60;;;14.80;94.30;;;;;;5053353;28;20028;-66
2021/06/13 07:13:12;;;;;;;5.95;3.88;;;14.90;94.10;;;;;;5054300;28;20036;-65
2021/06/13 07:15:38;;;;;;;5.68;3.22;;;15.00;93.90;;;;;;5054896;28;20500;-66
2021/06/13 07:18:04;;;;;;;9.10;4.45;;;15.00;93.80;;;;;;5051702;28;20128;-65
2021/06/13 07:20:30;;;;;;;11.43;3.85;;;15.00;93.50;;;;;;5055613;28;20116;-65
2021/06/13 07:22:55;;;;;;;11.98;4.65;;;15.00;93.20;;;;;;5055865;28;20055;-65
2021/06/13 07:25:21;;;;;;;8.70;3.72;;;15.00;93.10;;;;;;5055718;28;20032;-65
2021/06/13 07:27:47;;;;;;;7.70;3.28;;;15.00;92.90;;;;;;5055855;28;20445;-65
2021/06/13 07:30:15;;;;;;;5.68;3.00;;;15.00;92.80;;;;;;5054437;28;20481;-65
2021/06/13 07:32:41;;;;;;;9.32;3.05;;;15.10;92.70;;;;;;5055411;28;20071;-65
2021/06/13 07:35:08;;;;;;;5.07;2.92;;;15.10;92.60;;;;;;5055527;28;20029;-65
2021/06/13 07:37:34;;;;;;;5.72;2.58;;;15.20;92.50;;;;;;5055489;28;20033;-65
2021/06/13 07:39:59;;;;;;;3.72;2.10;;;15.30;92.40;;;;;;5055557;28;20071;-65
2021/06/13 07:42:25;;;;;;;6.38;3.15;;;15.50;92.30;;;;;;5055405;28;20025;-65
2021/06/13 07:44:51;;;;;;;8.50;4.18;;;15.50;92.00;;;;;;5042957;28;20468;-65
2021/06/13 07:47:18;;;;;;;10.23;4.80;;;15.50;91.70;;;;;;5055177;28;20056;-65
2021/06/13 07:49:45;;;;;;;7.72;3.60;;;15.60;91.50;;;;;;5052539;28;20029;-65
2021/06/13 07:52:11;;;;;;;6.90;3.50;;;15.60;91.50;;;;;;5053609;28;20115;-66
2021/06/13 07:54:37;;;;;;;4.97;2.40;;;15.70;91.30;;;;;;5054737;28;20021;-66
2021/06/13 07:57:03;;;;;;;7.90;3.05;;;15.90;91.10;;;;;;5054978;28;20025;-66
2021/06/13 07:59:28;;;;;;;6.57;2.80;;;16.10;91.00;;;;;;5054477;28;20037;-66
2021/06/13 08:01:54;;;;;;;4.95;2.72;;;16.20;90.80;;;;;;5054594;28;20104;-66
2021/06/13 08:04:19;;;;;;;7.47;2.92;;;16.30;90.70;;;;;;5040641;28;20029;-65
2021/06/13 08:06:45;;;;;;;7.93;3.42;;;16.40;90.40;;;;;;5038988;28;20033;-65
2021/06/13 08:09:10;;;;;;;6.63;2.65;;;16.50;90.20;;;;;;5035952;28;20036;-66
2021/06/13 08:11:36;;;;;;;6.75;2.80;;;16.70;90.20;;;;;;5062271;28;20035;-66
2021/06/13 08:14:02;;;;;;;9.68;3.50;;;16.80;89.00;;;;;;5064782;28;20068;-66
2021/06/13 08:16:28;;;;;;;6.35;3.38;;;16.90;88.20;;;;;;5060001;28;20111;-66
2021/06/13 08:18:54;;;;;;;4.63;2.50;;;17.10;87.70;;;;;;5065461;28;20029;-66
2021/06/13 08:21:19;;;;;;;5.68;2.63;;;17.20;86.80;;;;;;5063056;28;20021;-66
2021/06/13 08:23:46;;;;;;;7.03;3.17;;;17.20;86.20;;;;;;5046711;28;20025;-66
2021/06/13 08:26:12;;;;;;;5.57;2.70;;;17.30;85.70;;;;;;5064874;28;20020;-66
2021/06/13 08:28:37;;;;;;;7.72;3.33;;;17.30;85.60;;;;;;5063064;28;20017;-66
2021/06/13 08:31:03;;;;;;;7.53;2.95;;;17.30;85.40;;;;;;5063435;28;20107;-66
2021/06/13 08:33:29;;;;;;;6.13;2.85;;;17.30;85.00;;;;;;5064039;28;20480;-66
2021/06/13 08:35:55;;;;;;;5.75;2.50;;;17.30;85.00;;;;;;5061597;28;20107;-66
2021/06/13 08:38:21;;;;;;;4.65;2.10;;;17.30;84.70;;;;;;5065106;28;20016;-66
2021/06/13 08:40:47;;;;;;;7.28;3.15;;;17.40;84.20;;;;;;5062540;28;20017;-66
2021/06/13 08:43:14;;;;;;;5.93;2.63;;;17.40;83.80;;;;;;5063201;28;20009;-66
2021/06/13 08:45:40;;;;;;;5.78;2.25;;;17.40;83.30;;;;;;5063415;28;20044;-66
2021/06/13 08:48:08;;;;;;;4.25;1.90;;;17.50;83.00;;;;;;5063526;28;20021;-66
2021/06/13 08:50:35;;;;;;;5.47;2.35;;;17.60;82.70;;;;;;5062817;28;20032;-66
2021/06/13 08:53:01;;;;;;;5.53;2.45;;;17.60;82.10;;;;;;5059998;28;20014;-66
2021/06/13 08:55:28;;;;;;;5.80;2.17;;;17.60;81.60;;;;;;5063273;28;20098;-66
2021/06/13 08:57:55;;;;;;;4.13;2.17;;;17.70;81.10;;;;;;5062986;28;20037;-66
2021/06/13 09:00:25;;;;;;;5.65;2.25;;;17.70;80.00;;;;;;5051785;28;20013;-66
2021/06/13 09:02:50;;;;;;;5.43;2.17;;;17.80;79.60;;;;;;5060228;28;20013;-66
2021/06/13 09:05:19;;;;;;;5.32;2.33;;;17.80;79.50;;;;;;5062828;28;20105;-66
2021/06/13 09:07:53;;;;;;;5.87;2.27;;;17.90;79.30;;;;;;5063669;28;20028;-66
2021/06/13 09:10:22;;;;;;;5.22;2.00;;;18.00;79.00;;;;;;5064306;28;20635;-66
2021/06/13 09:12:48;;;;;;;;;;;18.00;78.70;;;;;;5063599;28;20032;-66
2021/06/13 09:15:15;;;;;;;6.00;2.60;;;18.00;77.20;;;;;;5062250;28;19904;-66
2021/06/13 09:17:44;;;;;;;6.35;2.83;;;18.00;77.20;;;;;;5059791;28;20598;-66
2021/06/13 09:20:20;;;;;;;5.97;2.50;;;18.10;77.30;;;;;;5063519;28;20074;-66
2021/06/13 09:23:06;;;;;;;6.22;2.70;;;18.20;77.40;;;;;;5059826;28;20017;-67
2021/06/13 09:25:32;;;;;;;5.90;3.15;;;18.40;77.10;;;;;;5060995;28;20025;-66
2021/06/13 09:28:07;;;;;;;5.07;2.15;;;18.30;77.30;;;;;;5060779;28;20025;-66
2021/06/13 09:30:36;;;;;;;4.22;2.40;;;18.40;76.70;;;;;;5062224;28;20027;-66
2021/06/13 09:33:07;;;;;;;7.83;2.63;;;18.40;76.50;;;;;;5059649;28;20028;-66
2021/06/13 09:35:33;;;;;;;7.93;2.80;;;18.50;76.30;;;;;;5060868;28;20024;-66
2021/06/13 09:38:14;;;;;;;5.28;2.47;;;18.50;76.30;;;;;;5063625;28;20024;-66
2021/06/13 09:40:43;;;;;;;4.75;2.13;;;18.60;76.00;;;;;;5063803;28;20384;-66
2021/06/13 09:43:14;;;;;;;4.35;2.45;;;18.70;75.90;;;;;;5062865;28;20099;-66
2021/06/13 09:45:50;;;;;;;6.30;2.33;;;18.80;75.60;;;;;;5061923;28;20029;-66
2021/06/13 09:48:16;;;;;;;5.03;2.42;;;18.90;74.80;;;;;;5061600;28;20016;-66
2021/06/13 09:50:44;;;;;;;3.85;2.00;;;18.90;74.30;;;;;;5059004;28;20028;-66
2021/06/13 09:53:25;;;;;;;3.25;1.67;;;19.00;74.00;;;;;;5060994;28;20024;-66
2021/06/13 09:56:04;;;;;;;4.65;1.85;;;19.10;73.50;;;;;;5061496;28;20045;-66
2021/06/13 09:58:30;;;;;;;5.40;2.20;;;19.20;73.40;;;;;;5061269;28;20111;-66
2021/06/13 10:01:10;;;;;;;6.32;2.10;;;19.30;73.00;;;;;;5061352;28;20028;-66
2021/06/13 10:03:37;;;;;;;2.80;1.88;;;19.40;72.40;;;;;;5061431;28;20024;-67
2021/06/13 10:06:04;;;;;;;4.47;2.17;;;19.40;71.70;;;;;;5057847;28;20436;-67
2021/06/13 10:08:30;;;;;;;3.60;1.90;;;19.40;71.00;;;;;;5060917;28;20025;-67
2021/06/13 10:10:59;;;;;;;5.10;1.85;;;19.40;70.70;;;;;;5063330;28;20372;-67
2021/06/13 10:13:49;;;;;;;3.42;1.58;;;19.50;70.30;;;;;;5058527;28;20134;-67
2021/06/13 10:16:34;;;;;;;4.57;2.30;;;19.60;70.30;;;;;;5059544;28;20049;-66
2021/06/13 10:19:04;;;;;;;5.78;2.00;;;19.70;69.00;;;;;;5060716;28;20023;-67
2021/06/13 10:21:35;;;;;;;3.53;1.80;;;19.70;68.60;;;;;;5062364;28;20025;-67
2021/06/13 10:24:03;;;;;;;4.40;1.90;;;19.80;68.40;;;;;;5061062;28;20159;-67
2021/06/13 10:26:29;;;;;;;2.55;1.38;;;19.80;68.10;;;;;;5062209;28;20089;-67
2021/06/13 10:28:55;;;;;;;5.55;1.90;;;19.80;67.80;;;;;;5061261;28;20103;-67
2021/06/13 10:31:21;;;;;;;4.75;1.75;;;19.90;67.30;;;;;;5063215;28;20017;-67
2021/06/13 10:33:46;;;;;;;3.33;1.63;;;20.00;67.20;;;;;;5064903;28;20102;-67
2021/06/13 10:36:12;;;;;;;6.40;2.40;;;20.10;67.10;;;;;;5064376;28;20063;-67
2021/06/13 10:38:39;;;;;;;5.65;2.42;;;20.20;66.60;;;;;;5067551;28;20020;-67
2021/06/13 10:41:05;;;;;;;6.55;2.40;;;20.20;65.30;;;;;;5073326;28;20023;-67
2021/06/13 10:43:31;;;;;;;5.50;2.58;;;20.30;64.80;;;;;;5066948;28;20025;-67
2021/06/13 10:46:13;;;;;;;7.13;3.10;;;20.40;64.30;;;;;;5060729;28;20036;-67
2021/06/13 10:48:46;;;;;;;4.55;2.70;;;20.40;64.40;;;;;;5056344;28;20086;-67
2021/06/13 10:51:35;;;;;;;3.80;2.20;;;20.40;64.10;;;;;;5056191;28;20018;-67
2021/06/13 10:54:19;;;;;;;;;;;20.60;64.20;;;;;;5055616;28;20024;-67
2021/06/13 10:56:45;;;;;;;5.57;2.80;;;20.50;64.50;;;;;;5054491;28;20336;-67
2021/06/13 10:59:17;;;;;;;6.47;2.70;;;20.60;64.90;;;;;;5055374;28;20070;-67
2021/06/13 11:02:19;;;;;;;5.15;2.85;;;20.70;64.80;;;;;;5056105;28;20067;-67
2021/06/13 11:04:47;;;;;;;4.10;2.30;;;20.80;64.40;;;;;;5064573;28;20033;-67
2021/06/13 11:07:35;;;;;;;5.63;3.10;;;20.90;64.50;;;;;;5076316;28;20484;-67
2021/06/13 11:10:16;;;;;;;6.28;3.03;;;21.00;63.60;;;;;;5065752;28;20044;-67
2021/06/13 11:13:02;;;;;;;7.00;2.65;;;21.10;64.10;;;;;;5075299;28;20021;-67
2021/06/13 11:15:38;;;;;;;7.15;3.10;;;21.10;63.70;;;;;;5075765;28;20020;-67
2021/06/13 11:18:16;;;;;;;7.43;3.30;;;21.10;63.90;;;;;;5056786;28;20481;-67
2021/06/13 11:21:09;;;;;;;4.00;2.42;;;21.20;64.10;;;;;;5056088;28;20060;-67
2021/06/13 11:23:35;;;;;;;6.82;3.13;;;21.30;64.20;;;;;;5054549;28;20057;-67
2021/06/13 11:26:04;;;;;;;6.43;2.88;;;21.40;64.10;;;;;;5055909;28;20068;-67
2021/06/13 11:28:48;;;;;;;4.43;2.22;;;21.40;63.40;;;;;;5056136;28;20024;-67
2021/06/13 11:31:13;;;;;;;4.22;1.83;;;21.60;63.30;;;;;;5055927;28;20025;-67
2021/06/13 11:34:02;;;;;;;4.93;2.00;;;21.70;63.00;;;;;;5055808;28;20027;-67
2021/06/13 11:36:31;;;;;;;4.10;2.07;;;21.90;62.10;;;;;;5055197;28;20510;-67
2021/06/13 11:39:03;;;;;;;;;;;22.10;61.90;;;;;;5056109;28;20314;-67
2021/06/13 11:41:36;;;;;;;5.38;2.20;;;22.20;61.20;;;;;;5055920;28;20257;-68
2021/06/13 11:44:06;;;;;;;4.40;2.15;;;22.30;60.60;;;;;;5054960;28;20021;-68
2021/06/13 11:46:44;;;;;;;4.88;2.50;;;22.50;60.00;;;;;;5054348;28;20029;-68
2021/06/13 11:49:14;;;;;;;6.18;2.75;;;22.60;59.90;;;;;;5055365;28;20115;-68
2021/06/13 11:52:01;;;;;;;4.45;2.38;;;22.70;59.20;;;;;;5055463;28;20085;-68
2021/06/13 11:54:47;;;;;;;4.55;1.92;;;22.90;58.90;;;;;;5055389;28;20031;-68
2021/06/13 11:57:12;;;;;;;4.65;2.00;;;23.00;58.50;;;;;;5055305;28;20025;-68
2021/06/13 11:59:39;;;;;;;4.18;1.67;;;23.10;58.40;;;;;;5055172;28;20432;-68
2021/06/13 12:02:05;;;;;;;4.68;2.22;;;23.20;58.40;;;;;;5055340;28;20082;-68
2021/06/13 12:04:31;;;;;;;4.90;2.20;;;23.30;58.00;;;;;;5053946;28;20024;-68
2021/06/13 12:06:58;;;;;;;4.13;2.30;;;23.50;57.80;;;;;;5053829;28;20370;-68
2021/06/13 12:09:26;;;;;;;5.18;2.13;;;23.70;57.60;;;;;;5055190;28;20075;-68
2021/06/13 12:12:03;;;;;;;7.32;3.33;;;23.80;57.30;;;;;;5055025;28;20020;-67
2021/06/13 12:14:35;;;;;;;6.80;3.15;;;24.00;56.20;;;;;;5054902;28;20029;-68
2021/06/13 12:17:10;;;;;;;5.60;3.45;;;24.00;55.90;;;;;;5053354;28;20473;-68
2021/06/13 12:19:49;;;;;;;7.82;2.40;;;24.10;55.30;;;;;;5055031;28;20099;-68
2021/06/13 12:22:17;;;;;;;;;;;24.20;55.60;;;;;;5055348;28;20068;-68
2021/06/13 12:27:23;;;;;;;3.97;2.42;;;24.40;55.70;;;;;;5054669;28;20029;-68
2021/06/13 12:29:49;;;;;;;;;;;24.60;54.60;;;;;;5055207;28;20028;-68
2021/06/13 12:32:16;;;;;;;4.47;2.08;;;24.60;55.00;;;;;;5053505;28;19905;-68
2021/06/13 12:34:45;;;;;;;5.60;2.10;;;24.50;54.20;;;;;;5054648;28;20370;-68
2021/06/13 12:37:17;;;;;;;9.63;3.25;;;24.70;53.70;;;;;;5054413;28;20477;-68
2021/06/13 12:40:00;;;;;;;4.97;2.10;;;24.90;52.20;;;;;;5054569;28;20029;-68
2021/06/13 12:42:27;;;;;;;5.95;2.47;;;25.00;51.70;;;;;;5054475;28;20024;-68
2021/06/13 12:45:01;;;;;;;5.18;2.30;;;25.10;51.30;;;;;;5054561;28;20469;-68
2021/06/13 12:47:27;;;;;;;5.13;2.00;;;25.20;49.90;;;;;;5054162;28;20067;-68
2021/06/13 12:49:55;;;;;;;5.00;2.05;;;24.90;49.40;;;;;;5054493;28;20021;-68
2021/06/13 12:52:21;;;;;;;4.18;1.70;;;25.10;50.10;;;;;;5054396;28;20029;-68
2021/06/13 12:55:05;;;;;;;2.88;1.38;;;25.30;50.00;;;;;;5054294;28;20032;-68
2021/06/13 12:57:31;;;;;;;2.97;1.63;;;25.50;49.40;;;;;;5052959;28;20032;-68
2021/06/13 12:59:57;;;;;;;3.83;1.92;;;25.60;49.10;;;;;;5054049;28;20029;-68
2021/06/13 13:02:23;;;;;;;4.50;2.00;;;25.40;48.00;;;;;;5054182;28;20032;-68